Time;durP1;ratioP1;P1;durP2;ratioP2;P2;SDS_P1;SDS_P2;PMS_P1;PMS_P2;Temp;Humidity;BMP_temperature;BMP_pressure;BME280_temperature;BME280_humidity;BME280_pressure;Samples;Min_cycle;Max_cycle;Signal;HPM_P1;HPM_P2
2023/06/04 00:00:23;;;;;;;;;;;14.00;52.60;;;;;;5029749;28;19944;-81
2023/06/04 00:02:48;;;;;;;;;;;14.10;50.70;;;;;;5055363;28;20320;-81
2023/06/04 00:05:14;;;;;;;;;;;14.10;50.40;;;;;;5040115;28;19920;-80
2023/06/04 00:07:39;;;;;;;;;;;14.00;50.70;;;;;;5041872;28;20407;-81
2023/06/04 00:10:05;;;;;;;;;;;13.90;50.60;;;;;;5032995;28;20284;-81
2023/06/04 00:12:31;;;;;;;;;;;13.90;50.40;;;;;;5036573;28;19928;-80
2023/06/04 00:14:56;;;;;;;;;;;13.90;50.20;;;;;;5033204;28;20051;-81
2023/06/04 00:17:21;;;;;;;;;;;13.90;51.00;;;;;;5033285;28;19951;-80
2023/06/04 00:19:47;;;;;;;;;;;14.00;50.00;;;;;;5033377;28;19974;-81
2023/06/04 00:22:12;;;;;;;;;;;13.80;50.90;;;;;;5046610;28;20343;-81
2023/06/04 00:24:40;;;;;;;;;;;13.80;51.00;;;;;;5034691;28;19921;-82
2023/06/04 00:27:07;;;;;;;;;;;13.70;51.90;;;;;;5040958;28;19965;-82
2023/06/04 00:29:32;;;;;;;;;;;13.70;51.60;;;;;;5039705;28;19913;-82
2023/06/04 00:31:57;;;;;;;;;;;13.60;52.00;;;;;;5040219;28;19920;-81
2023/06/04 00:34:23;;;;;;;;;;;13.60;51.40;;;;;;5037798;28;19917;-81
2023/06/04 00:36:48;;;;;;;;;;;13.60;52.80;;;;;;5040310;28;20291;-82
2023/06/04 00:39:14;;;;;;;;;;;13.50;52.30;;;;;;5033133;28;19939;-82
2023/06/04 00:41:39;;;;;;;;;;;13.50;53.50;;;;;;5028867;28;19921;-82
2023/06/04 00:44:06;;;;;;;;;;;13.40;53.60;;;;;;5030076;28;19948;-82
2023/06/04 00:46:32;;;;;;;;;;;13.40;53.30;;;;;;5031397;28;19982;-81
2023/06/04 00:48:57;;;;;;;;;;;13.40;53.60;;;;;;5036340;28;19928;-82
2023/06/04 00:51:23;;;;;;;;;;;13.40;53.90;;;;;;5045492;28;20009;-82
2023/06/04 00:53:49;;;;;;;;;;;13.30;54.00;;;;;;5048330;28;19913;-81
2023/06/04 00:56:15;;;;;;;;;;;13.30;54.70;;;;;;5056265;28;19944;-82
2023/06/04 00:58:41;;;;;;;;;;;13.30;55.40;;;;;;5035373;28;20534;-82
2023/06/04 01:01:09;;;;;;;;;;;13.40;55.10;;;;;;5039411;28;19951;-82
2023/06/04 01:03:36;;;;;;;;;;;13.20;56.30;;;;;;5031852;28;19928;-82
2023/06/04 01:06:08;;;;;;;;;;;13.20;56.40;;;;;;5041246;28;20361;-82
2023/06/04 01:08:34;;;;;;;;;;;13.00;57.20;;;;;;5042642;28;20019;-82
2023/06/04 01:11:00;;;;;;;;;;;13.00;57.00;;;;;;5043928;28;19939;-82
2023/06/04 01:13:25;;;;;;;;;;;12.80;57.70;;;;;;5041803;28;19929;-82
2023/06/04 01:15:51;;;;;;;;;;;12.80;58.50;;;;;;5044146;28;19917;-83
2023/06/04 01:18:27;;;;;;;;;;;12.80;58.40;;;;;;5041789;28;19920;-83
2023/06/04 01:21:07;;;;;;;;;;;12.80;58.60;;;;;;5034455;28;19913;-82
2023/06/04 01:24:00;;;;;;;;;;;12.80;58.60;;;;;;5046832;28;19913;-83
2023/06/04 01:26:30;;;;;;;;;;;12.70;59.10;;;;;;5032994;28;19956;-83
2023/06/04 01:28:56;;;;;;;;;;;12.60;59.90;;;;;;5039738;28;19941;-83
2023/06/04 01:31:22;;;;;;;;;;;12.60;60.40;;;;;;5047927;28;19913;-83
2023/06/04 01:34:00;;;;;;;;;;;12.60;60.00;;;;;;5051120;28;20467;-83
2023/06/04 01:36:25;;;;;;;;;;;12.60;60.70;;;;;;5037848;28;19913;-83
2023/06/04 01:38:51;;;;;;;;;;;12.50;60.90;;;;;;5038127;28;19912;-83
2023/06/04 01:41:16;;;;;;;;;;;12.50;61.00;;;;;;5033447;28;20428;-83
2023/06/04 01:43:42;;;;;;;;;;;12.50;62.30;;;;;;5023579;28;19917;-83
2023/06/04 01:46:07;;;;;;;;;;;12.60;62.10;;;;;;5021689;28;20284;-83
2023/06/04 01:48:33;;;;;;;;;;;12.50;61.50;;;;;;5025984;28;19921;-83
2023/06/04 01:50:58;;;;;;;;;;;12.60;61.90;;;;;;5031168;28;20150;-84
2023/06/04 01:53:24;;;;;;;;;;;12.60;61.60;;;;;;5036464;28;19967;-83
2023/06/04 01:55:50;;;;;;;;;;;12.50;62.40;;;;;;5034757;28;20440;-84
2023/06/04 01:58:27;;;;;;;;;;;12.50;61.90;;;;;;5029072;28;20338;-83
2023/06/04 02:00:53;;;;;;;;;;;12.50;62.60;;;;;;5031098;28;19917;-83
2023/06/04 02:03:18;;;;;;;;;;;12.50;62.10;;;;;;5029424;28;19921;-82
2023/06/04 02:05:46;;;;;;;;;;;12.40;63.20;;;;;;5034098;28;22105;-82
2023/06/04 02:08:12;;;;;;;;;;;12.30;63.70;;;;;;5054359;28;19921;-82
2023/06/04 02:10:37;;;;;;;;;;;12.30;63.70;;;;;;5028041;28;19924;-83
2023/06/04 02:13:03;;;;;;;;;;;12.30;63.90;;;;;;5034526;28;20435;-82
2023/06/04 02:15:29;;;;;;;;;;;12.30;64.70;;;;;;5031839;28;20016;-82
2023/06/04 02:17:58;;;;;;;;;;;12.20;65.30;;;;;;5031377;28;20003;-83
2023/06/04 02:20:24;;;;;;;;;;;12.20;65.00;;;;;;5040971;28;19913;-82
2023/06/04 02:22:49;;;;;;;;;;;12.20;64.20;;;;;;5040747;28;19921;-83
2023/06/04 02:25:15;;;;;;;;;;;12.10;64.60;;;;;;5034525;28;19928;-82
2023/06/04 02:27:40;;;;;;;;;;;12.20;65.10;;;;;;5037407;28;20041;-82
2023/06/04 02:30:06;;;;;;;;;;;12.20;64.90;;;;;;5037553;28;20572;-83
2023/06/04 02:32:33;;;;;;;;;;;12.20;63.80;;;;;;5035632;28;19924;-84
2023/06/04 02:34:58;;;;;;;;;;;12.20;64.50;;;;;;5030321;28;19917;-83
2023/06/04 02:37:24;;;;;;;;;;;12.10;65.50;;;;;;5037812;28;19928;-83
2023/06/04 02:39:49;;;;;;;;;;;12.10;65.60;;;;;;5034871;28;20376;-83
2023/06/04 02:42:15;;;;;;;;;;;12.10;65.50;;;;;;5035711;28;19921;-83
2023/06/04 02:44:40;;;;;;;;;;;12.20;65.00;;;;;;5046456;28;20106;-84
2023/06/04 02:47:06;;;;;;;;;;;12.30;63.80;;;;;;5046578;28;19917;-84
2023/06/04 02:49:31;;;;;;;;;;;12.20;63.70;;;;;;5038458;28;19913;-83
2023/06/04 02:51:57;;;;;;;;;;;12.20;63.80;;;;;;5030265;28;19939;-83
2023/06/04 02:54:23;;;;;;;;;;;12.10;64.60;;;;;;5037525;28;19924;-83
2023/06/04 02:56:49;;;;;;;;;;;12.20;65.20;;;;;;5028541;28;19913;-84
2023/06/04 02:59:14;;;;;;;;;;;12.10;64.90;;;;;;5029368;28;19913;-84
2023/06/04 03:01:40;;;;;;;;;;;12.10;64.60;;;;;;5033190;28;19919;-83
2023/06/04 03:04:09;;;;;;;;;;;12.00;64.70;;;;;;5030830;28;20376;-83
2023/06/04 03:06:37;;;;;;;;;;;12.10;64.40;;;;;;5032780;28;19960;-84
2023/06/04 03:09:03;;;;;;;;;;;12.10;64.50;;;;;;5039556;28;19920;-83
2023/06/04 03:11:29;;;;;;;;;;;12.10;64.80;;;;;;5033126;28;20346;-83
2023/06/04 03:13:55;;;;;;;;;;;12.10;65.20;;;;;;5036419;28;19920;-83
2023/06/04 03:16:20;;;;;;;;;;;12.10;64.90;;;;;;5045646;28;19996;-83
2023/06/04 03:18:46;;;;;;;;;;;12.00;65.10;;;;;;5036164;28;19916;-84
2023/06/04 03:21:12;;;;;;;;;;;12.10;65.10;;;;;;5043955;28;19917;-83
2023/06/04 03:23:37;;;;;;;;;;;12.00;65.60;;;;;;5035899;28;19957;-85
2023/06/04 03:26:03;;;;;;;;;;;12.00;65.30;;;;;;5040707;28;19913;-83
2023/06/04 03:28:29;;;;;;;;;;;12.10;65.80;;;;;;5034831;28;19917;-84
2023/06/04 03:30:55;;;;;;;;;;;12.00;65.90;;;;;;5055991;28;19913;-83
2023/06/04 03:33:20;;;;;;;;;;;12.10;65.40;;;;;;5036949;28;19960;-83
2023/06/04 03:35:47;;;;;;;;;;;12.10;65.30;;;;;;5038496;28;19919;-83
2023/06/04 03:38:13;;;;;;;;;;;12.00;66.00;;;;;;5037064;28;19913;-83
2023/06/04 03:40:39;;;;;;;;;;;11.80;66.90;;;;;;5042104;28;19936;-82
2023/06/04 03:43:04;;;;;;;;;;;11.80;66.80;;;;;;5035930;28;19956;-84
2023/06/04 03:45:30;;;;;;;;;;;12.00;65.80;;;;;;5031124;28;19916;-83
2023/06/04 03:47:55;;;;;;;;;;;11.80;66.60;;;;;;5031786;28;19914;-83
2023/06/04 03:50:21;;;;;;;;;;;11.90;66.90;;;;;;5037181;28;19956;-84
2023/06/04 03:52:48;;;;;;;;;;;11.80;67.10;;;;;;5038485;28;19920;-83
2023/06/04 03:55:13;;;;;;;;;;;11.80;67.60;;;;;;5037041;28;19917;-83
2023/06/04 03:57:39;;;;;;;;;;;11.80;67.30;;;;;;5030870;28;19928;-83
2023/06/04 04:00:05;;;;;;;;;;;11.80;68.00;;;;;;5037558;28;19999;-83
2023/06/04 04:02:31;;;;;;;;;;;11.80;67.90;;;;;;5031305;28;20375;-84
2023/06/04 04:04:57;;;;;;;;;;;11.80;67.80;;;;;;5035235;28;19966;-84
2023/06/04 04:07:22;;;;;;;;;;;11.80;67.50;;;;;;5029153;28;20269;-83
2023/06/04 04:09:48;;;;;;;;;;;11.80;67.50;;;;;;5051450;28;19924;-84
2023/06/04 04:12:13;;;;;;;;;;;11.70;67.80;;;;;;5035925;28;19913;-83
2023/06/04 04:14:39;;;;;;;;;;;11.60;67.90;;;;;;5035516;28;19963;-83
2023/06/04 04:17:04;;;;;;;;;;;11.50;68.30;;;;;;5042793;28;20015;-83
2023/06/04 04:19:30;;;;;;;;;;;11.50;68.50;;;;;;5047087;28;19913;-83
2023/06/04 04:21:56;;;;;;;;;;;11.50;69.00;;;;;;5042472;28;19955;-83
2023/06/04 04:24:22;;;;;;;;;;;11.40;69.30;;;;;;5032962;28;19913;-84
2023/06/04 04:26:48;;;;;;;;;;;11.50;69.00;;;;;;5025940;28;19913;-84
2023/06/04 04:29:14;;;;;;;;;;;11.50;69.40;;;;;;5028734;28;19977;-84
2023/06/04 04:31:40;;;;;;;;;;;11.60;69.90;;;;;;5033483;28;19913;-83
2023/06/04 04:34:08;;;;;;;;;;;11.60;70.10;;;;;;5039672;28;19975;-84
2023/06/04 04:36:34;;;;;;;;;;;11.70;70.20;;;;;;5031549;28;19923;-83
2023/06/04 04:39:00;;;;;;;;;;;11.80;70.20;;;;;;5031574;28;19920;-84
2023/06/04 04:41:25;;;;;;;;;;;11.90;70.10;;;;;;5033534;28;19913;-84
2023/06/04 04:43:52;;;;;;;;;;;12.10;70.00;;;;;;5030465;28;19942;-84
2023/06/04 04:46:17;;;;;;;;;;;12.10;69.80;;;;;;5025268;28;19917;-84
2023/06/04 04:48:43;;;;;;;;;;;12.10;69.80;;;;;;5038284;28;20630;-84
2023/06/04 04:51:08;;;;;;;;;;;12.10;70.10;;;;;;5032919;28;19962;-85
2023/06/04 04:53:34;;;;;;;;;;;12.30;68.90;;;;;;5030597;28;19980;-86
2023/06/04 04:56:00;;;;;;;;;;;12.30;68.30;;;;;;5032813;28;19913;-84
2023/06/04 04:58:25;;;;;;;;;;;12.40;68.50;;;;;;5029431;28;20418;-85
2023/06/04 05:00:51;;;;;;;;;;;12.50;68.80;;;;;;5036880;28;19921;-84
2023/06/04 05:03:16;;;;;;;;;;;12.60;69.40;;;;;;5042891;28;19995;-86
2023/06/04 05:05:43;;;;;;;;;;;12.70;68.80;;;;;;5041969;28;20338;-84
2023/06/04 05:08:08;;;;;;;;;;;12.80;69.00;;;;;;5029798;28;19923;-83
2023/06/04 05:10:35;;;;;;;;;;;12.90;69.00;;;;;;5034395;28;19921;-83
2023/06/04 05:13:01;;;;;;;;;;;13.00;69.50;;;;;;5032347;28;19972;-84
2023/06/04 05:15:27;;;;;;;;;;;13.10;69.70;;;;;;5028560;28;21984;-84
2023/06/04 05:17:53;;;;;;;;;;;13.10;69.70;;;;;;5029232;28;19920;-85
2023/06/04 05:20:22;;;;;;;;;;;13.20;69.50;;;;;;5028017;28;19936;-85
2023/06/04 05:22:48;;;;;;;;;;;13.30;69.00;;;;;;5035676;28;20305;-84
2023/06/04 05:25:13;;;;;;;;;;;13.40;68.50;;;;;;5036863;28;20312;-85
2023/06/04 05:27:39;;;;;;;;;;;13.50;68.00;;;;;;5049376;28;19970;-84
2023/06/04 05:30:06;;;;;;;;;;;13.40;67.60;;;;;;5070370;28;19912;-84
2023/06/04 05:32:32;;;;;;;;;;;13.50;68.20;;;;;;5044814;28;19909;-85
2023/06/04 05:34:58;;;;;;;;;;;13.60;68.00;;;;;;5054513;28;20411;-85
2023/06/04 05:37:25;;;;;;;;;;;13.60;68.20;;;;;;5073490;28;20347;-86
2023/06/04 05:39:50;;;;;;;;;;;13.60;67.90;;;;;;5056886;28;19909;-87
2023/06/04 05:42:15;;;;;;;;;;;13.80;66.60;;;;;;5055146;28;20307;-84
2023/06/04 05:44:41;;;;;;;;;;;13.80;66.90;;;;;;5049201;28;19920;-85
2023/06/04 05:47:06;;;;;;;;;;;14.00;66.30;;;;;;5055094;28;19920;-83
2023/06/04 05:49:33;;;;;;;;;;;14.00;65.50;;;;;;5054919;28;19908;-84
2023/06/04 05:51:59;;;;;;;;;;;14.10;65.40;;;;;;5055767;28;20368;-84
2023/06/04 05:54:24;;;;;;;;;;;14.20;65.00;;;;;;5070235;28;19943;-85
2023/06/04 05:56:49;;;;;;;;;;;14.30;64.50;;;;;;5054457;28;19912;-85
2023/06/04 05:59:15;;;;;;;;;;;14.10;64.20;;;;;;5049871;28;20430;-87
2023/06/04 06:01:40;;;;;;;;;;;14.10;65.10;;;;;;5068743;28;19916;-85
2023/06/04 06:04:06;;;;;;;;;;;14.10;64.00;;;;;;5055426;28;19951;-84
2023/06/04 06:06:32;;;;;;;;;;;14.00;64.50;;;;;;5052118;28;19913;-86
2023/06/04 06:08:58;;;;;;;;;;;14.00;64.50;;;;;;5053497;28;19913;-85
2023/06/04 06:11:23;;;;;;;;;;;14.10;65.80;;;;;;5052790;28;19940;-84
2023/06/04 06:13:49;;;;;;;;;;;14.10;64.40;;;;;;5051081;28;19913;-86
2023/06/04 06:16:16;;;;;;;;;;;14.10;63.40;;;;;;5057327;28;19923;-84
2023/06/04 06:18:42;;;;;;;;;;;14.20;64.20;;;;;;5052778;28;19920;-85
2023/06/04 06:21:07;;;;;;;;;;;14.30;65.40;;;;;;5058717;28;19913;-85
2023/06/04 06:23:33;;;;;;;;;;;14.40;63.70;;;;;;5054217;28;20003;-86
2023/06/04 06:26:01;;;;;;;;;;;14.40;62.60;;;;;;5050315;28;19948;-87
2023/06/04 06:28:26;;;;;;;;;;;14.40;60.90;;;;;;5056663;28;19915;-86
2023/06/04 06:30:52;;;;;;;;;;;14.50;61.90;;;;;;5054446;28;19913;-85
2023/06/04 06:33:21;;;;;;;;;;;14.50;60.20;;;;;;5056717;28;19912;-89
2023/06/04 06:35:47;;;;;;;;;;;14.60;60.60;;;;;;5066046;28;19912;-85
2023/06/04 06:38:13;;;;;;;;;;;14.60;62.00;;;;;;5056306;28;19916;-85
2023/06/04 06:40:40;;;;;;;;;;;14.60;61.40;;;;;;5033163;28;20048;-88
2023/06/04 06:43:05;;;;;;;;;;;14.80;62.20;;;;;;5066039;28;19925;-87
2023/06/04 06:45:31;;;;;;;;;;;14.90;59.50;;;;;;5065503;28;19912;-85
2023/06/04 06:47:56;;;;;;;;;;;14.90;58.70;;;;;;5063072;28;20483;-84
2023/06/04 06:50:22;;;;;;;;;;;15.00;56.90;;;;;;5047691;28;19920;-86
2023/06/04 06:52:47;;;;;;;;;;;15.00;57.20;;;;;;5053701;28;19923;-86
2023/06/04 06:55:13;;;;;;;;;;;15.00;56.10;;;;;;5051048;28;20027;-85
2023/06/04 06:57:38;;;;;;;;;;;15.10;56.20;;;;;;5044080;28;19917;-85
2023/06/04 07:00:05;;;;;;;;;;;15.10;56.10;;;;;;5043806;28;20350;-86
2023/06/04 07:02:31;;;;;;;;;;;15.30;56.20;;;;;;5037926;28;19931;-85
2023/06/04 07:04:56;;;;;;;;;;;15.30;56.00;;;;;;5041006;28;20656;-85
2023/06/04 07:07:22;;;;;;;;;;;15.40;56.30;;;;;;5049577;28;20007;-84
2023/06/04 07:09:48;;;;;;;;;;;15.50;54.40;;;;;;5048328;28;19913;-84
2023/06/04 07:12:13;;;;;;;;;;;15.50;55.80;;;;;;5051829;28;19909;-88
2023/06/04 07:14:38;;;;;;;;;;;15.50;55.30;;;;;;5041249;28;19966;-86
2023/06/04 07:17:04;;;;;;;;;;;15.60;55.50;;;;;;5050956;28;19951;-86
2023/06/04 07:19:30;;;;;;;;;;;15.70;53.20;;;;;;5051217;28;20364;-88
2023/06/04 07:21:55;;;;;;;;;;;15.70;53.90;;;;;;5050085;28;19920;-85
2023/06/04 07:24:21;;;;;;;;;;;15.70;52.60;;;;;;5053918;28;19913;-86
2023/06/04 07:26:47;;;;;;;;;;;15.80;52.40;;;;;;5067431;28;19915;-86
2023/06/04 07:29:12;;;;;;;;;;;15.80;53.10;;;;;;5062610;28;20180;-86
2023/06/04 07:31:38;;;;;;;;;;;15.90;51.70;;;;;;5048549;28;20358;-88
2023/06/04 07:34:03;;;;;;;;;;;16.00;50.70;;;;;;5053154;28;19995;-86
2023/06/04 07:36:29;;;;;;;;;;;16.00;50.40;;;;;;5063186;28;19919;-86
2023/06/04 07:38:55;;;;;;;;;;;16.00;51.00;;;;;;5064098;28;19946;-87
2023/06/04 07:41:20;;;;;;;;;;;16.00;51.60;;;;;;5053576;28;19912;-87
2023/06/04 07:43:46;;;;;;;;;;;16.10;52.20;;;;;;5061079;28;20415;-86
2023/06/04 07:46:11;;;;;;;;;;;16.20;52.50;;;;;;5062716;28;19913;-87
2023/06/04 07:48:36;;;;;;;;;;;16.40;51.70;;;;;;5053757;28;19927;-87
2023/06/04 07:51:04;;;;;;;;;;;16.40;51.30;;;;;;5065446;28;19924;-85
2023/06/04 07:53:30;;;;;;;;;;;16.30;50.10;;;;;;5057237;28;19915;-86
2023/06/04 07:55:56;;;;;;;;;;;16.50;52.20;;;;;;5054587;28;19963;-84
2023/06/04 07:58:22;;;;;;;;;;;16.60;52.70;;;;;;5050932;28;19913;-87
2023/06/04 08:00:47;;;;;;;;;;;16.80;52.30;;;;;;5053175;28;19999;-85
2023/06/04 08:03:15;;;;;;;;;;;16.80;50.60;;;;;;5054021;28;19959;-84
2023/06/04 08:05:40;;;;;;;;;;;17.00;51.30;;;;;;5054067;28;20349;-85
2023/06/04 08:08:06;;;;;;;;;;;17.10;51.30;;;;;;5064223;28;19915;-85
2023/06/04 08:10:31;;;;;;;;;;;17.10;52.60;;;;;;5054964;28;19919;-86
2023/06/04 08:12:57;;;;;;;;;;;17.10;50.80;;;;;;5070737;28;19920;-85
2023/06/04 08:15:23;;;;;;;;;;;17.10;51.30;;;;;;5044538;28;21820;-85
2023/06/04 08:17:48;;;;;;;;;;;17.10;51.80;;;;;;5044818;28;19913;-84
2023/06/04 08:20:14;;;;;;;;;;;17.40;51.90;;;;;;5057532;28;19915;-86
2023/06/04 08:22:40;;;;;;;;;;;17.50;51.60;;;;;;5050073;28;19925;-85
2023/06/04 08:25:06;;;;;;;;;;;17.50;52.10;;;;;;5045470;28;19987;-85
2023/06/04 08:27:32;;;;;;;;;;;17.60;51.40;;;;;;5049734;28;19913;-85
2023/06/04 08:29:58;;;;;;;;;;;17.50;52.60;;;;;;5039358;28;19917;-86
2023/06/04 08:32:24;;;;;;;;;;;17.60;52.70;;;;;;5047524;28;19948;-85
2023/06/04 08:34:49;;;;;;;;;;;17.60;50.60;;;;;;5039824;28;20395;-84
2023/06/04 08:37:16;;;;;;;;;;;17.70;52.10;;;;;;5054414;28;19921;-85
2023/06/04 08:39:42;;;;;;;;;;;17.90;51.40;;;;;;5035440;28;19987;-83
2023/06/04 08:42:10;;;;;;;;;;;18.10;47.70;;;;;;5041723;28;20011;-84
2023/06/04 08:44:35;;;;;;;;;;;18.00;49.00;;;;;;5039406;28;19917;-83
2023/06/04 08:47:05;;;;;;;;;;;18.00;51.50;;;;;;5044903;28;19996;-84
2023/06/04 08:49:38;;;;;;;;;;;18.10;49.60;;;;;;5041382;28;19913;-83
2023/06/04 08:52:10;;;;;;;;;;;18.10;47.50;;;;;;5032441;28;19975;-83
2023/06/04 08:54:36;;;;;;;;;;;18.30;47.20;;;;;;5056041;28;20379;-84
2023/06/04 08:57:03;;;;;;;;;;;18.30;48.10;;;;;;5041186;28;19913;-82
2023/06/04 08:59:28;;;;;;;;;;;18.30;48.90;;;;;;5048176;28;19971;-83
2023/06/04 09:01:54;;;;;;;;;;;18.50;49.00;;;;;;5119389;22;19937;-82
2023/06/04 09:04:20;;;;;;;;;;;18.40;48.60;;;;;;5037251;28;20104;-83
2023/06/04 09:06:46;;;;;;;;;;;18.50;49.60;;;;;;5048493;28;19924;-79
2023/06/04 09:09:15;;;;;;;;;;;18.50;48.60;;;;;;5045757;28;19928;-82
2023/06/04 09:11:54;;;;;;;;;;;18.60;47.60;;;;;;5038919;28;19927;-83
2023/06/04 09:14:20;;;;;;;;;;;18.60;47.80;;;;;;5050106;28;19921;-82
2023/06/04 09:16:46;;;;;;;;;;;18.70;45.80;;;;;;5043625;28;19943;-81
2023/06/04 09:19:12;;;;;;;;;;;18.60;45.30;;;;;;5047437;28;20029;-83
2023/06/04 09:21:46;;;;;;;;;;;18.70;46.30;;;;;;5047026;28;20127;-82
2023/06/04 09:24:12;;;;;;;;;;;18.80;47.80;;;;;;5051764;28;19976;-79
2023/06/04 09:26:37;;;;;;;;;;;18.80;44.70;;;;;;5048047;28;20396;-83
2023/06/04 09:29:05;;;;;;;;;;;18.80;47.60;;;;;;5052068;28;19908;-82
2023/06/04 09:31:36;;;;;;;;;;;19.00;48.40;;;;;;5046928;28;19913;-85
2023/06/04 09:34:02;;;;;;;;;;;19.00;44.90;;;;;;5048736;28;19920;-82
2023/06/04 09:36:31;;;;;;;;;;;19.10;44.50;;;;;;5050386;28;19948;-84
2023/06/04 09:38:56;;;;;;;;;;;19.10;45.10;;;;;;5048660;28;20314;-81
2023/06/04 09:41:23;;;;;;;;;;;19.30;42.70;;;;;;5043042;28;19917;-86
2023/06/04 09:43:49;;;;;;;;;;;19.30;44.70;;;;;;5042543;28;19995;-88
2023/06/04 09:46:16;;;;;;;;;;;19.30;45.80;;;;;;5047434;28;19971;-87
2023/06/04 09:48:43;;;;;;;;;;;19.30;42.60;;;;;;5045537;28;19917;-85
2023/06/04 09:51:13;;;;;;;;;;;19.30;43.90;;;;;;5044288;28;19920;-85
2023/06/04 09:53:39;;;;;;;;;;;19.50;42.40;;;;;;5048499;28;20516;-81
2023/06/04 09:56:06;;;;;;;;;;;19.60;42.00;;;;;;5051803;28;19916;-84
2023/06/04 09:58:32;;;;;;;;;;;19.60;41.40;;;;;;5050231;28;19964;-84
2023/06/04 10:00:58;;;;;;;;;;;19.60;40.70;;;;;;5045464;28;19932;-84
2023/06/04 10:03:25;;;;;;;;;;;19.60;41.50;;;;;;5051234;28;19923;-84
2023/06/04 10:05:55;;;;;;;;;;;19.60;41.00;;;;;;5048820;28;19916;-83
2023/06/04 10:08:22;;;;;;;;;;;19.60;43.40;;;;;;5058326;28;19921;-87
2023/06/04 10:10:49;;;;;;;;;;;19.60;41.20;;;;;;5066668;23;19939;-84
2023/06/04 10:13:18;;;;;;;;;;;19.70;41.60;;;;;;5048902;28;19913;-82
2023/06/04 10:15:45;;;;;;;;;;;19.70;42.80;;;;;;5045425;28;19920;-82
2023/06/04 10:18:10;;;;;;;;;;;19.90;44.70;;;;;;5064861;28;19920;-84
2023/06/04 10:20:36;;;;;;;;;;;19.90;40.80;;;;;;5054373;28;19939;-84
2023/06/04 10:23:04;;;;;;;;;;;19.90;41.40;;;;;;5054428;28;20279;-84
2023/06/04 10:25:30;;;;;;;;;;;20.00;41.50;;;;;;5047064;28;19951;-83
2023/06/04 10:27:56;;;;;;;;;;;20.00;39.70;;;;;;5057186;28;19913;-83
2023/06/04 10:30:21;;;;;;;;;;;20.10;37.60;;;;;;5052587;28;19913;-80
2023/06/04 10:32:47;;;;;;;;;;;20.10;37.90;;;;;;5054981;28;19909;-83
2023/06/04 10:35:14;;;;;;;;;;;20.10;40.70;;;;;;5048221;28;19941;-80
2023/06/04 10:37:40;;;;;;;;;;;20.00;41.30;;;;;;5044240;28;19920;-83
2023/06/04 10:40:11;;;;;;;;;;;20.00;41.70;;;;;;5055418;28;21782;-83
2023/06/04 10:42:38;;;;;;;;;;;20.10;40.80;;;;;;5051910;28;19945;-82
2023/06/04 10:45:04;;;;;;;;;;;20.20;40.40;;;;;;5049162;28;20248;-82
2023/06/04 10:47:30;;;;;;;;;;;20.20;39.30;;;;;;5049902;28;19979;-83
2023/06/04 10:50:12;;;;;;;;;;;20.10;38.80;;;;;;5047143;28;19909;-83
2023/06/04 10:52:39;;;;;;;;;;;20.20;42.10;;;;;;5062455;28;19904;-84
2023/06/04 10:55:06;;;;;;;;;;;20.40;41.90;;;;;;5049128;28;20032;-83
2023/06/04 11:00:47;;;;;;;;;;;20.50;40.20;;;;;;5050729;28;19941;-82
2023/06/04 11:03:12;;;;;;;;;;;20.40;40.10;;;;;;5069160;22;19932;-86
2023/06/04 11:05:39;;;;;;;;;;;20.60;37.50;;;;;;5063481;28;19917;-86
2023/06/04 11:08:05;;;;;;;;;;;20.80;40.20;;;;;;5051536;28;20987;-86
2023/06/04 11:10:35;;;;;;;;;;;20.70;39.70;;;;;;5046625;28;19966;-86
2023/06/04 11:13:04;;;;;;;;;;;20.70;41.40;;;;;;5049906;28;20405;-86
2023/06/04 11:15:43;;;;;;;;;;;20.80;38.40;;;;;;5061467;28;19923;-86
2023/06/04 11:18:13;;;;;;;;;;;20.80;37.50;;;;;;5059467;28;20562;-86
2023/06/04 11:20:38;;;;;;;;;;;20.70;38.80;;;;;;5056858;28;19912;-85
2023/06/04 11:23:05;;;;;;;;;;;20.60;38.90;;;;;;5068466;28;20274;-86
2023/06/04 11:25:32;;;;;;;;;;;20.70;39.80;;;;;;5048520;28;20318;-86
2023/06/04 11:27:59;;;;;;;;;;;20.80;37.80;;;;;;5049756;28;20460;-86
2023/06/04 11:30:25;;;;;;;;;;;21.00;38.60;;;;;;5057874;28;20857;-86
2023/06/04 11:32:59;;;;;;;;;;;20.90;39.30;;;;;;5053414;28;19927;-85
2023/06/04 11:35:48;;;;;;;;;;;20.90;38.40;;;;;;5053625;28;19931;-86
2023/06/04 11:38:13;;;;;;;;;;;21.00;39.80;;;;;;5044143;28;19961;-86
2023/06/04 11:40:39;;;;;;;;;;;21.00;37.70;;;;;;5052820;28;19924;-85
2023/06/04 11:43:05;;;;;;;;;;;21.10;39.40;;;;;;5057768;28;19923;-86
2023/06/04 11:45:33;;;;;;;;;;;21.20;40.40;;;;;;5058957;28;19939;-85
2023/06/04 11:47:59;;;;;;;;;;;21.20;38.60;;;;;;5048955;28;19952;-85
2023/06/04 11:50:28;;;;;;;;;;;21.10;37.90;;;;;;5058676;28;19963;-85
2023/06/04 11:52:54;;;;;;;;;;;21.10;40.20;;;;;;5048651;28;19957;-86
2023/06/04 11:55:22;;;;;;;;;;;21.20;40.20;;;;;;5038713;28;19955;-85
2023/06/04 11:57:48;;;;;;;;;;;21.30;37.30;;;;;;5059070;28;19913;-85
2023/06/04 12:00:15;;;;;;;;;;;21.30;38.50;;;;;;5061541;28;20246;-86
2023/06/04 12:02:53;;;;;;;;;;;21.30;36.90;;;;;;5053125;28;20393;-86
2023/06/04 12:05:20;;;;;;;;;;;21.30;36.50;;;;;;5046729;28;19994;-85
2023/06/04 12:07:47;;;;;;;;;;;21.20;35.90;;;;;;5057516;28;19962;-88
2023/06/04 12:10:13;;;;;;;;;;;21.40;37.30;;;;;;5050582;28;19956;-82
2023/06/04 12:12:40;;;;;;;;;;;21.30;38.10;;;;;;5052021;28;20290;-84
2023/06/04 12:15:07;;;;;;;;;;;21.40;37.90;;;;;;5042580;28;19928;-86
2023/06/04 12:17:32;;;;;;;;;;;21.50;37.60;;;;;;5049407;28;19935;-86
2023/06/04 12:19:58;;;;;;;;;;;21.30;36.90;;;;;;5051776;28;20367;-87
2023/06/04 12:22:24;;;;;;;;;;;21.50;35.30;;;;;;5046595;28;19921;-84
2023/06/04 12:24:55;;;;;;;;;;;21.40;36.50;;;;;;5047946;28;19924;-84
2023/06/04 12:27:21;;;;;;;;;;;21.40;36.20;;;;;;5042452;28;20371;-85
2023/06/04 12:30:03;;;;;;;;;;;21.40;38.20;;;;;;5035304;28;19956;-83
2023/06/04 12:32:29;;;;;;;;;;;21.30;34.70;;;;;;5047386;28;20042;-86
2023/06/04 12:34:55;;;;;;;;;;;21.20;35.10;;;;;;5050962;28;20465;-84
2023/06/04 12:37:21;;;;;;;;;;;21.30;36.00;;;;;;5042295;28;19916;-88
2023/06/04 12:39:46;;;;;;;;;;;21.50;37.60;;;;;;5044750;28;19920;-90
2023/06/04 12:42:12;;;;;;;;;;;21.50;35.40;;;;;;5043545;28;20007;-85
2023/06/04 12:44:40;;;;;;;;;;;21.60;37.10;;;;;;5044583;28;19928;-87
2023/06/04 12:47:06;;;;;;;;;;;21.70;37.70;;;;;;5046927;28;20263;-85
2023/06/04 12:49:32;;;;;;;;;;;21.80;36.20;;;;;;5039705;28;19920;-84
2023/06/04 12:51:57;;;;;;;;;;;21.70;35.40;;;;;;5048621;28;19916;-84
2023/06/04 12:54:22;;;;;;;;;;;21.60;34.70;;;;;;5047200;28;19913;-83
2023/06/04 12:56:48;;;;;;;;;;;21.60;33.60;;;;;;5050026;28;20317;-84
2023/06/04 12:59:13;;;;;;;;;;;21.70;36.10;;;;;;5053525;28;19912;-86
2023/06/04 13:01:39;;;;;;;;;;;21.80;35.00;;;;;;5057265;28;19913;-84
2023/06/04 13:04:05;;;;;;;;;;;22.00;34.20;;;;;;5055432;28;19917;-84
2023/06/04 13:06:31;;;;;;;;;;;21.90;35.40;;;;;;5068788;28;20528;-85
2023/06/04 13:08:56;;;;;;;;;;;21.80;34.40;;;;;;5058827;28;19924;-85
2023/06/04 13:11:21;;;;;;;;;;;21.80;35.40;;;;;;5074101;28;19913;-84
2023/06/04 13:13:47;;;;;;;;;;;21.80;34.70;;;;;;5055779;28;19909;-84
2023/06/04 13:16:13;;;;;;;;;;;22.00;35.60;;;;;;5054649;28;19999;-84
2023/06/04 13:18:38;;;;;;;;;;;21.90;35.00;;;;;;5057452;28;19909;-85
2023/06/04 13:21:04;;;;;;;;;;;21.90;34.80;;;;;;5053490;28;19917;-84
2023/06/04 13:23:29;;;;;;;;;;;21.90;34.30;;;;;;5055436;28;19977;-84
2023/06/04 13:25:55;;;;;;;;;;;21.80;34.90;;;;;;5055479;28;19943;-85
2023/06/04 13:28:20;;;;;;;;;;;22.00;36.30;;;;;;5058758;28;19909;-84
2023/06/04 13:30:46;;;;;;;;;;;22.00;36.80;;;;;;5068803;28;20007;-84
2023/06/04 13:33:11;;;;;;;;;;;22.10;36.60;;;;;;5059894;28;19929;-85
2023/06/04 13:35:37;;;;;;;;;;;22.10;36.30;;;;;;5054956;28;19913;-84
2023/06/04 13:38:04;;;;;;;;;;;22.20;34.20;;;;;;5060676;28;19952;-84
2023/06/04 13:40:29;;;;;;;;;;;22.20;32.80;;;;;;5058381;28;19917;-86
2023/06/04 13:42:55;;;;;;;;;;;22.10;32.10;;;;;;5054342;28;21802;-83
2023/06/04 13:45:21;;;;;;;;;;;22.00;32.40;;;;;;5066774;28;20298;-84
2023/06/04 13:47:47;;;;;;;;;;;22.10;30.80;;;;;;5050040;28;20362;-84
2023/06/04 13:50:13;;;;;;;;;;;22.20;32.70;;;;;;5054151;28;19940;-84
2023/06/04 13:52:38;;;;;;;;;;;22.10;32.70;;;;;;5045699;28;20340;-84
2023/06/04 13:55:04;;;;;;;;;;;22.10;30.50;;;;;;5041228;28;19913;-84
2023/06/04 13:57:29;;;;;;;;;;;22.20;29.00;;;;;;5053244;28;19909;-82
2023/06/04 13:59:55;;;;;;;;;;;22.20;30.40;;;;;;5045174;28;20272;-82
2023/06/04 14:02:20;;;;;;;;;;;22.10;34.60;;;;;;5052581;28;19924;-83
2023/06/04 14:04:46;;;;;;;;;;;22.10;31.30;;;;;;5044702;28;19916;-83
2023/06/04 14:07:14;;;;;;;;;;;22.10;31.20;;;;;;5043665;28;21245;-83
2023/06/04 14:09:39;;;;;;;;;;;22.10;32.50;;;;;;5042198;28;20008;-83
2023/06/04 14:12:05;;;;;;;;;;;22.10;28.30;;;;;;5034536;28;19909;-83
2023/06/04 14:14:36;;;;;;;;;;;22.10;31.60;;;;;;5030964;28;19913;-83